ASN logo
Last updated: 18 September 2021
Statuts:Préliminaire
Date:jeudi 5 mars 2015
Heure:ca 19:30
Type/Sous-type:Silhouette image of generic L410 model; specific model in this crash may look slightly different
Let L-410UVP-E20
Compagnie:Icar Air
Immatriculation: E7-WDT
Numéro de série: 912615
Année de Fabrication: 1991
Moteurs: 2 Walter M-601E
Equipage:victimes: 0 / à bord: 3
Passagers:victimes: 0 / à bord: 0
Total:victimes: 0 / à bord: 3
Dégats de l'appareil: Substantiels
Conséquences: Written off (damaged beyond repair)
Lieu de l'accident:Ancona-Falconara Airport (AOI) (   Italie)
Phase de vol: A l'atterrissage (LDG)
Nature:Cargo
Aéroport de départ:Sarajevo Airport (SJJ/LQSA), Bosnie Herzégovine
Aéroport de destination:Ancona-Falconara Airport (AOI/LIPY), Italie
Numéro de vol:RAC9002
Détails:
A Let L-410UVP-E20, registration E7-WDT, was damaged in a landing accident at Ancona-Falconara Airport (AOI), Italy. The three crew members were not injured.
The airplane, operated by Icar Air, operated on a cargo flight from Sarajevo Airport (SJJ), Bosnia and Herzegovina to Ancona.
Upon landing on runway 04 in strong winds, the nose gear collapsed. According to the ANSV, some flames developed in the cockpit.

Sources:
» ANSV
» Il Resto die Carlino, 5-3-2015
» ENAC

METAR Weather report:
16:50 UTC / 17:50 local time:
LIPY 051650Z 02024G36KT 9999 SCT030 SCT060 08/01 Q1015

17:50 UTC / 18:50 local time:
LIPY 051750Z 03025G35KT 9999 FEW030 SCT060 08/01 Q1016

18:50 UTC / 19:50 local time:
LIPY 051850Z 03027G39KT 9999 SCT030 09/01 Q1017


Photos

photo of Let-L-410UVP-E20-E7-WDT
accident date: 05-03-2015
type: Let L-410UVP-E20
registration: E7-WDT
 

Plan
Ce plan montre l'aéroport de départ ainsi que la supposée destination du vol. La ligne fixe reliant les deux aéroports n'est pas le plan de vol exact.
La distance entre Sarajevo Airport et Ancona-Falconara Airport est de 397 km (248 miles).
Accident location: Approximate; accuracy within a few kilometers.

Les informations ci-dessus ne représentent pas l'opinion de la 'Flight Safety Foundation' ou de 'Aviation Safety Network' sur les causes de l'accident. Ces informations prélimimaires sont basées sur les faits tel qu'ils sont connus à ce jour.
languages: languages

Share